createdAt,value
2019-06-20T00:03:24.154Z,2.20
2019-06-20T00:08:09.998Z,2.67
2019-06-20T00:13:00.597Z,2.73
2019-06-20T00:17:43.338Z,2.80
2019-06-20T00:22:29.087Z,2.33
2019-06-20T00:27:14.972Z,2.70
2019-06-20T00:32:00.776Z,2.50
2019-06-20T00:36:46.733Z,2.60
2019-06-20T00:41:32.670Z,2.17
2019-06-20T00:46:18.440Z,1.93
2019-06-20T00:51:04.173Z,1.80
2019-06-20T00:55:50.584Z,1.80
2019-06-20T01:00:36.634Z,1.87
2019-06-20T01:05:22.798Z,1.83
2019-06-20T01:10:10.071Z,1.90
2019-06-20T01:14:56.017Z,1.80
2019-06-20T01:19:41.813Z,1.67
2019-06-20T01:24:27.612Z,2.07
2019-06-20T01:29:13.433Z,2.27
2019-06-20T01:33:59.320Z,2.30
2019-06-20T01:38:45.112Z,2.20
2019-06-20T01:43:30.887Z,2.57
2019-06-20T01:48:16.660Z,2.10
2019-06-20T01:53:02.480Z,2.27
2019-06-20T01:57:48.795Z,2.00
2019-06-20T02:02:34.923Z,2.00
2019-06-20T02:07:21.209Z,1.70
2019-06-20T02:12:07.271Z,1.83
2019-06-20T02:16:53.227Z,1.83
2019-06-20T02:21:39.191Z,2.00
2019-06-20T02:26:24.972Z,2.00
2019-06-20T02:31:10.947Z,2.70
2019-06-20T02:35:56.778Z,2.40
2019-06-20T02:40:42.913Z,2.60
2019-06-20T02:45:30.287Z,2.50
2019-06-20T02:50:17.221Z,2.27
2019-06-20T02:55:03.103Z,2.07
2019-06-20T02:59:48.895Z,2.70
2019-06-20T03:04:34.676Z,2.27
2019-06-20T03:09:20.706Z,2.60
2019-06-20T03:14:06.577Z,2.50
2019-06-20T03:18:52.532Z,2.57
2019-06-20T03:23:38.323Z,2.53
2019-06-20T03:28:26.223Z,2.47
2019-06-20T03:33:12.462Z,2.97
2019-06-20T03:38:00.044Z,2.67
2019-06-20T03:42:46.409Z,2.30
2019-06-20T03:47:32.878Z,2.40
2019-06-20T03:52:18.685Z,2.60
2019-06-20T03:57:05.300Z,3.03
2019-06-20T04:01:51.486Z,3.07
2019-06-20T04:06:37.500Z,2.80
2019-06-20T04:11:25.204Z,2.50
2019-06-20T04:16:12.671Z,2.90
2019-06-20T04:21:00.188Z,2.67
2019-06-20T04:25:46.055Z,2.47
2019-06-20T04:30:32.040Z,2.63
2019-06-20T04:35:18.757Z,2.90
2019-06-20T04:40:07.683Z,2.90
2019-06-20T04:44:55.040Z,2.93
2019-06-20T04:49:40.917Z,3.07
2019-06-20T04:54:26.630Z,2.80
2019-06-20T04:59:13.386Z,3.13
2019-06-20T05:04:01.265Z,2.67
2019-06-20T05:08:47.359Z,2.70
2019-06-20T05:13:36.764Z,3.13
2019-06-20T05:18:22.892Z,3.00
2019-06-20T05:23:09.140Z,3.37
2019-06-20T05:27:56.017Z,3.83
2019-06-20T05:32:42.428Z,3.77
2019-06-20T05:37:29.508Z,3.57
2019-06-20T05:42:16.056Z,3.53
2019-06-20T05:47:12.518Z,3.50
2019-06-20T05:51:50.039Z,2.70
2019-06-20T05:56:36.282Z,2.47
2019-06-20T06:01:21.957Z,2.57
2019-06-20T06:06:08.227Z,2.60
2019-06-20T06:10:54.018Z,2.80
2019-06-20T06:15:40.251Z,2.60
2019-06-20T06:20:26.430Z,2.60
2019-06-20T06:25:13.125Z,2.37
2019-06-20T06:29:59.052Z,2.50
2019-06-20T06:34:45.133Z,2.27
2019-06-20T06:39:32.068Z,2.97
2019-06-20T06:44:19.914Z,2.50
2019-06-20T06:49:06.608Z,2.40
2019-06-20T06:53:52.829Z,2.20
2019-06-20T06:58:38.730Z,2.03
2019-06-20T07:03:26.195Z,2.27
2019-06-20T07:08:12.271Z,2.25
2019-06-20T07:12:58.383Z,2.30
2019-06-20T07:17:45.936Z,1.92
2019-06-20T07:22:32.328Z,2.15
2019-06-20T07:27:21.632Z,2.37
2019-06-20T07:32:08.953Z,2.50
2019-06-20T07:36:55.241Z,1.90
2019-06-20T07:41:42.636Z,2.02
2019-06-20T07:46:28.565Z,2.20
2019-06-20T07:51:14.757Z,1.92
2019-06-20T07:56:01.095Z,1.95
2019-06-20T08:00:47.967Z,2.30
2019-06-20T08:05:33.964Z,1.90
2019-06-20T08:10:22.683Z,2.17
2019-06-20T08:15:15.117Z,2.17
2019-06-20T08:19:57.829Z,2.00
2019-06-20T08:24:45.441Z,1.42
2019-06-20T08:29:33.718Z,1.32
2019-06-20T08:34:21.904Z,1.37
2019-06-20T08:39:11.698Z,1.20
2019-06-20T08:43:59.813Z,1.47
2019-06-20T08:48:46.018Z,1.45
2019-06-20T08:53:32.361Z,1.60
2019-06-20T08:58:18.719Z,1.47
2019-06-20T09:03:05.590Z,1.35
2019-06-20T09:07:53.597Z,1.98
2019-06-20T09:12:41.290Z,1.60
2019-06-20T09:17:28.890Z,1.70
2019-06-20T09:22:17.339Z,1.72
2019-06-20T09:27:05.286Z,1.40
2019-06-20T09:31:53.787Z,1.50
2019-06-20T09:36:41.986Z,1.27
2019-06-20T09:41:41.809Z,1.72
2019-06-20T09:46:29.698Z,2.42
2019-06-20T09:51:18.516Z,2.83
2019-06-20T09:56:07.103Z,2.60
2019-06-20T10:00:55.118Z,4.60
2019-06-20T10:05:43.262Z,3.50
2019-06-20T10:10:32.750Z,1.67
2019-06-20T10:15:24.955Z,2.00
2019-06-20T10:20:13.174Z,2.92
2019-06-20T10:25:00.658Z,1.92
2019-06-20T10:29:51.095Z,2.00
2019-06-20T10:34:40.179Z,2.10
2019-06-20T10:39:28.919Z,1.72
2019-06-20T10:44:18.076Z,1.80
2019-06-20T10:49:05.699Z,2.00
2019-06-20T10:53:53.396Z,2.10
2019-06-20T10:58:41.641Z,2.40
2019-06-20T11:03:30.265Z,2.57
2019-06-20T11:08:17.831Z,2.80
2019-06-20T11:13:05.362Z,2.40
2019-06-20T11:17:56.554Z,2.33
2019-06-20T11:22:48.688Z,2.10
2019-06-20T11:27:38.742Z,2.27
2019-06-20T11:32:26.374Z,2.37
2019-06-20T11:37:13.399Z,3.10
2019-06-20T11:42:04.371Z,3.87
2019-06-20T11:46:55.669Z,2.57
2019-06-20T11:51:43.366Z,1.77
2019-06-20T11:56:33.151Z,1.50
2019-06-20T12:01:32.254Z,1.47
2019-06-20T12:06:09.006Z,2.58
2019-06-20T12:10:55.368Z,1.07
2019-06-20T12:15:44.403Z,1.12
2019-06-20T12:20:32.881Z,0.98
2019-06-20T12:25:20.816Z,0.93
2019-06-20T12:30:09.141Z,0.93
2019-06-20T12:34:57.453Z,1.20
2019-06-20T12:39:44.442Z,1.00
2019-06-20T12:44:35.598Z,1.15
2019-06-20T12:49:24.068Z,1.20
2019-06-20T12:54:12.333Z,1.45
2019-06-20T12:59:00.491Z,1.00
2019-06-20T13:03:48.064Z,1.20
2019-06-20T13:08:34.555Z,1.10
2019-06-20T13:13:21.763Z,1.15
2019-06-20T13:18:11.270Z,1.10
2019-06-20T13:22:59.884Z,0.90
2019-06-20T13:27:50.337Z,1.00
2019-06-20T13:32:38.461Z,1.07
2019-06-20T13:37:25.424Z,1.30
2019-06-20T13:42:14.044Z,1.72
2019-06-20T13:47:00.671Z,1.42
2019-06-20T13:51:47.685Z,1.67
2019-06-20T13:56:34.077Z,1.15
2019-06-20T14:01:22.298Z,1.30
2019-06-20T14:06:08.322Z,1.10
2019-06-20T14:10:54.549Z,1.00
2019-06-20T14:15:43.164Z,1.20
2019-06-20T14:20:32.837Z,0.82
2019-06-20T14:25:19.280Z,1.00
2019-06-20T14:30:26.015Z,1.20
2019-06-20T14:35:14.538Z,1.50
2019-06-20T14:40:01.482Z,1.20
2019-06-20T14:44:50.633Z,1.32
2019-06-20T14:49:37.792Z,1.40
2019-06-20T14:54:25.027Z,1.00
2019-06-20T14:59:12.042Z,1.00
2019-06-20T15:03:58.632Z,1.10
2019-06-20T15:08:49.125Z,1.17
2019-06-20T15:13:38.520Z,1.00
2019-06-20T15:18:27.087Z,1.10
2019-06-20T15:23:15.949Z,1.02
2019-06-20T15:28:06.383Z,1.30
2019-06-20T15:33:04.019Z,1.20
2019-06-20T15:37:41.433Z,1.15
2019-06-20T15:42:29.875Z,1.20
2019-06-20T15:47:18.370Z,1.20
2019-06-20T15:52:06.908Z,1.15
2019-06-20T15:56:54.250Z,1.00
2019-06-20T16:01:40.562Z,1.32
2019-06-20T16:06:27.313Z,1.30
2019-06-20T16:11:13.901Z,1.35
2019-06-20T16:16:00.553Z,1.37
2019-06-20T16:20:47.107Z,1.30
2019-06-20T16:25:34.654Z,1.75
2019-06-20T16:30:21.780Z,1.20
2019-06-20T16:35:11.072Z,1.30
2019-06-20T16:39:57.630Z,1.20
2019-06-20T16:44:43.965Z,1.00
2019-06-20T16:49:31.124Z,1.10
2019-06-20T16:54:20.801Z,1.50
2019-06-20T16:59:09.719Z,1.30
2019-06-20T17:03:56.364Z,1.40
2019-06-20T17:08:42.741Z,1.32
2019-06-20T17:13:29.550Z,1.32
2019-06-20T17:18:16.992Z,1.40
2019-06-20T17:23:05.427Z,1.57
2019-06-20T17:27:52.237Z,1.67
2019-06-20T17:32:40.005Z,1.72
2019-06-20T17:37:26.424Z,1.90
2019-06-20T17:42:13.256Z,2.30
2019-06-20T17:46:59.264Z,2.25
2019-06-20T17:51:45.459Z,3.00
2019-06-20T17:56:31.764Z,2.70
2019-06-20T18:01:18.341Z,2.50
2019-06-20T18:06:05.605Z,3.30
2019-06-20T18:10:52.765Z,2.80
2019-06-20T18:15:39.406Z,3.40
2019-06-20T18:20:26.778Z,3.30
2019-06-20T18:25:15.029Z,2.80
2019-06-20T18:30:02.015Z,2.93
2019-06-20T18:35:01.595Z,2.87
2019-06-20T18:39:37.771Z,2.98
2019-06-20T18:44:28.243Z,4.00
2019-06-20T18:49:17.871Z,3.63
2019-06-20T18:54:06.752Z,3.93
2019-06-20T18:58:55.276Z,4.03
2019-06-20T19:03:52.691Z,3.70
2019-06-20T19:08:40.483Z,3.60
2019-06-20T19:13:29.239Z,4.37
2019-06-20T19:18:17.661Z,4.27
2019-06-20T19:23:04.926Z,3.90
2019-06-20T19:28:03.294Z,4.07
2019-06-20T19:33:03.363Z,3.67
2019-06-20T19:37:52.868Z,5.80
2019-06-20T19:42:39.420Z,5.20
2019-06-20T19:47:26.601Z,4.73
2019-06-20T19:52:13.989Z,5.23
2019-06-20T19:57:02.041Z,4.57
2019-06-20T20:01:49.018Z,4.97
2019-06-20T20:06:36.018Z,3.63
2019-06-20T20:11:24.450Z,4.40
2019-06-20T20:16:12.077Z,5.00
2019-06-20T20:21:02.677Z,4.77
2019-06-20T20:25:50.388Z,4.90
2019-06-20T20:30:37.507Z,4.40
2019-06-20T20:35:34.991Z,4.63
2019-06-20T20:40:13.694Z,5.17
2019-06-20T20:45:00.653Z,5.03
2019-06-20T20:49:48.508Z,5.07
2019-06-20T20:54:35.876Z,5.90
2019-06-20T20:59:22.593Z,5.30
2019-06-20T21:04:09.787Z,5.50
2019-06-20T21:08:57.013Z,5.40
2019-06-20T21:13:45.180Z,5.20
2019-06-20T21:18:32.576Z,5.00
2019-06-20T21:23:19.333Z,5.23
2019-06-20T21:28:07.668Z,6.63
2019-06-20T21:32:54.406Z,5.17
2019-06-20T21:37:41.490Z,5.10
2019-06-20T21:42:28.247Z,4.50
2019-06-20T21:47:14.970Z,4.27
2019-06-20T21:52:01.086Z,5.77
2019-06-20T21:56:47.093Z,5.03
2019-06-20T22:01:33.342Z,5.47
2019-06-20T22:06:23.821Z,4.67
2019-06-20T22:11:07.863Z,4.73
2019-06-20T22:15:54.519Z,5.13
2019-06-20T22:20:41.567Z,4.83
2019-06-20T22:25:27.813Z,4.93
2019-06-20T22:30:14.410Z,4.40
2019-06-20T22:35:00.977Z,4.53
2019-06-20T22:39:47.367Z,4.00
2019-06-20T22:44:33.628Z,4.97
2019-06-20T22:49:19.822Z,4.83
2019-06-20T22:54:05.930Z,4.13
2019-06-20T22:58:51.727Z,4.23
2019-06-20T23:03:37.843Z,3.60
2019-06-20T23:08:23.777Z,3.60
2019-06-20T23:13:10.197Z,3.90
2019-06-20T23:17:56.699Z,4.70
2019-06-20T23:22:43.660Z,4.37
2019-06-20T23:27:32.236Z,3.77
2019-06-20T23:32:20.095Z,3.00
2019-06-20T23:37:12.890Z,4.00
2019-06-20T23:41:56.155Z,3.30
2019-06-20T23:46:44.359Z,4.03
2019-06-20T23:51:33.898Z,3.80
2019-06-20T23:56:22.298Z,3.60
